Time;durP1;ratioP1;P1;durP2;ratioP2;P2;SDS_P1;SDS_P2;PMS_P1;PMS_P2;Temp;Humidity;BMP_temperature;BMP_pressure;BME280_temperature;BME280_humidity;BME280_pressure;Samples;Min_cycle;Max_cycle;Signal;HPM_P1;HPM_P2
2021/12/05 00:18:39;;;;;;;43.30;21.20;;;;;;;-1.10;74.56;98478.60;230349;1193;139561;-70
2021/12/05 00:23:50;;;;;;;46.50;21.80;;;;;;;-1.10;74.52;98480.55;230248;1194;140273;-68
2021/12/05 00:29:21;;;;;;;39.60;22.50;;;;;;;-1.10;74.36;98483.94;229471;1193;142178;-68
2021/12/05 00:40:33;;;;;;;40.90;23.10;;;;;;;-1.03;74.18;98481.91;229178;1193;140000;-69
2021/12/05 00:56:12;;;;;;;37.00;20.80;;;;;;;-1.09;74.48;98472.52;228955;1193;139690;-67
2021/12/05 01:07:10;;;;;;;35.50;19.10;;;;;;;-1.11;74.77;98479.06;228189;1193;139167;-68
2021/12/05 01:17:22;;;;;;;39.50;20.40;;;;;;;-0.99;74.63;98476.62;228598;1193;140177;-69
2021/12/05 01:22:30;;;;;;;51.90;22.40;;;;;;;-0.90;75.00;98481.90;228119;1193;142410;-68
2021/12/05 01:27:51;;;;;;;;;;;;;;;-0.81;75.03;98476.60;227832;1193;140655;-68
2021/12/05 01:33:00;;;;;;;47.10;20.40;;;;;;;-0.77;75.38;98476.95;229482;1193;127066;-67
2021/12/05 01:38:19;;;;;;;41.20;20.30;;;;;;;-0.71;75.17;98476.51;228373;1193;140320;-67
2021/12/05 01:59:27;;;;;;;40.90;19.30;;;;;;;-0.36;75.51;98465.95;229194;1193;140431;-67
2021/12/05 02:10:47;;;;;;;47.10;21.60;;;;;;;-0.24;75.19;98468.73;229428;1195;139873;-66
2021/12/05 02:16:04;;;;;;;44.40;19.90;;;;;;;-0.18;75.14;98470.23;230036;1195;141501;-66
2021/12/05 02:42:26;;;;;;;40.00;21.60;;;;;;;0.16;74.84;98463.59;229007;1193;140915;-66
2021/12/05 02:47:31;;;;;;;39.00;19.20;;;;;;;0.17;74.51;98456.05;229018;1193;139284;-65
2021/12/05 02:52:38;;;;;;;41.40;22.90;;;;;;;0.15;74.51;98453.88;229188;1190;140552;-66
2021/12/05 03:02:50;;;;;;;45.00;21.80;;;;;;;0.14;74.22;98443.88;228683;1193;139301;-65
2021/12/05 03:08:00;;;;;;;41.20;19.00;;;;;;;0.20;74.00;98442.16;228209;1193;139028;-65
2021/12/05 03:13:03;;;;;;;43.70;22.30;;;;;;;0.23;73.74;98440.31;229252;1193;140193;-65
2021/12/05 03:18:08;;;;;;;43.80;23.60;;;;;;;0.26;74.20;98445.47;228778;1193;139854;-66
2021/12/05 03:23:14;;;;;;;40.60;23.80;;;;;;;0.28;73.99;98442.30;227885;1193;139504;-67
2021/12/05 03:28:17;;;;;;;39.10;19.30;;;;;;;0.28;74.06;98445.96;228738;1193;140040;-66
2021/12/05 03:33:20;;;;;;;41.90;20.60;;;;;;;0.27;74.35;98455.88;228396;1193;139782;-67
2021/12/05 03:38:23;;;;;;;46.80;21.50;;;;;;;0.27;74.41;98464.59;228895;1186;139386;-67
2021/12/05 03:43:27;;;;;;;41.00;19.60;;;;;;;0.27;74.45;98465.92;229135;1193;140493;-68
2021/12/05 03:48:34;;;;;;;37.70;17.90;;;;;;;0.28;74.04;98468.34;228099;1193;142872;-67
2021/12/05 03:53:37;;;;;;;41.20;23.20;;;;;;;0.32;73.56;98467.77;228991;1193;141610;-66
2021/12/05 03:58:40;;;;;;;43.40;23.40;;;;;;;0.33;74.19;98459.17;228463;1193;141305;-67
2021/12/05 04:03:45;;;;;;;41.40;21.30;;;;;;;0.33;73.68;98451.88;229556;1193;139021;-67
2021/12/05 04:08:49;;;;;;;43.20;20.70;;;;;;;0.33;74.11;98444.65;229744;1193;139397;-70
2021/12/05 04:13:55;;;;;;;40.80;19.70;;;;;;;0.34;73.88;98444.41;230245;1193;139015;-73
2021/12/05 04:18:58;;;;;;;43.00;18.70;;;;;;;0.36;73.92;98445.06;230342;1193;140241;-70
2021/12/05 04:24:01;;;;;;;33.40;17.10;;;;;;;0.38;73.97;98447.08;230342;1193;138768;-68
2021/12/05 04:29:05;;;;;;;40.50;19.20;;;;;;;0.42;73.73;98449.87;230261;1193;139479;-66
2021/12/05 04:34:09;;;;;;;38.70;20.40;;;;;;;0.51;73.66;98457.47;229920;1193;140001;-69
2021/12/05 04:39:14;;;;;;;51.10;24.90;;;;;;;0.58;73.86;98461.55;229699;1193;140847;-70
2021/12/05 04:44:22;;;;;;;47.40;25.50;;;;;;;0.64;74.03;98460.11;229200;1193;140381;-72
2021/12/05 04:49:25;;;;;;;;;;;;;;;0.69;74.07;98462.14;229226;1193;140767;-68
2021/12/05 04:54:29;;;;;;;43.70;20.90;;;;;;;0.69;74.12;98470.36;229994;1193;126881;-67
2021/12/05 04:59:36;;;;;;;28.50;14.80;;;;;;;0.67;73.95;98465.48;229416;1193;140976;-68
2021/12/05 05:04:45;;;;;;;40.00;17.90;;;;;;;0.63;73.62;98467.09;228359;1193;139506;-68
2021/12/05 05:09:58;;;;;;;34.00;18.70;;;;;;;0.67;73.64;98470.12;229173;1193;140701;-67
2021/12/05 05:15:02;;;;;;;43.20;18.40;;;;;;;0.68;73.75;98472.58;228151;1193;141322;-67
2021/12/05 05:20:15;;;;;;;36.60;19.30;;;;;;;0.69;73.52;98471.66;228019;1193;139815;-66
2021/12/05 05:39:03;;;;;;;36.50;19.20;;;;;;;0.66;73.77;98480.85;227961;1193;140257;-66
2021/12/05 05:51:51;;;;;;;39.50;19.50;;;;;;;0.58;73.42;98497.86;229270;1193;141343;-67
2021/12/05 05:57:04;;;;;;;32.50;17.50;;;;;;;0.60;73.19;98497.40;228593;1193;139439;-67
2021/12/05 06:07:12;;;;;;;28.90;16.00;;;;;;;0.63;73.21;98511.48;229775;1193;139675;-68
2021/12/05 06:12:15;;;;;;;38.10;18.70;;;;;;;0.63;73.41;98521.31;229533;1193;139842;-69
2021/12/05 06:17:18;;;;;;;32.70;17.20;;;;;;;0.64;73.00;98536.05;230138;1193;141689;-69
2021/12/05 06:22:20;;;;;;;29.20;17.00;;;;;;;0.71;73.33;98534.64;230335;1193;141136;-68
2021/12/05 06:27:23;;;;;;;39.40;20.30;;;;;;;0.73;73.02;98538.64;230442;1193;140850;-69
2021/12/05 06:38:31;;;;;;;41.80;20.10;;;;;;;0.76;73.19;98553.98;228955;1193;139522;-69
2021/12/05 06:48:42;;;;;;;32.10;17.00;;;;;;;0.68;73.19;98570.06;229213;1193;139562;-67
2021/12/05 06:53:46;;;;;;;34.80;19.40;;;;;;;0.71;73.14;98572.16;228791;1193;141318;-67
2021/12/05 06:58:51;;;;;;;35.90;21.10;;;;;;;0.70;73.23;98586.70;228468;1193;140896;-69
2021/12/05 07:04:00;;;;;;;41.00;21.20;;;;;;;0.66;73.15;98595.80;228232;1193;140819;-68
2021/12/05 07:09:08;;;;;;;37.80;22.50;;;;;;;0.63;73.43;98600.52;229018;1193;138999;-68
2021/12/05 07:19:43;;;;;;;41.50;20.50;;;;;;;0.53;73.52;98610.31;228929;1193;140858;-70
2021/12/05 07:41:38;;;;;;;64.40;30.20;;;;;;;0.30;74.43;98624.55;227960;1193;139097;-67
2021/12/05 07:46:42;;;;;;;68.10;29.20;;;;;;;0.22;74.94;98630.98;228301;1193;139027;-67
2021/12/05 07:51:48;;;;;;;44.70;25.10;;;;;;;0.23;75.49;98631.91;228577;1193;140644;-67
2021/12/05 07:57:01;;;;;;;37.90;22.10;;;;;;;0.26;75.46;98627.93;228530;1193;140291;-67
2021/12/05 08:18:12;;;;;;;52.30;23.50;;;;;;;0.56;76.13;98626.34;229653;1193;140722;-68
2021/12/05 08:23:18;;;;;;;42.40;26.30;;;;;;;0.65;76.45;98628.33;230384;1193;139841;-69
2021/12/05 08:33:59;;;;;;;52.50;30.60;;;;;;;0.75;76.58;98630.33;230272;1193;139278;-68
2021/12/05 10:10:54;;;;;;;49.80;24.70;;;;;;;1.33;77.18;98642.91;228837;1193;140061;-67
2021/12/05 10:16:11;;;;;;;48.00;27.30;;;;;;;1.38;76.85;98637.58;230068;1193;140839;-69
2021/12/05 10:37:49;;;;;;;55.30;34.40;;;;;;;1.40;76.85;98641.70;230123;1193;140250;-68
2021/12/05 10:42:54;;;;;;;57.30;32.40;;;;;;;1.38;77.13;98639.08;230305;1193;138983;-72
2021/12/05 10:48:04;;;;;;;57.10;32.50;;;;;;;1.38;76.78;98635.44;228860;1193;139639;-64
2021/12/05 10:53:30;;;;;;;60.60;35.30;;;;;;;1.44;76.53;98639.64;229490;1193;140487;-64
2021/12/05 10:58:37;;;;;;;58.10;34.30;;;;;;;1.44;77.17;98639.98;229247;1193;141258;-64
2021/12/05 11:03:44;;;;;;;62.70;36.70;;;;;;;1.48;77.17;98625.23;229031;1193;139585;-63
2021/12/05 11:08:53;;;;;;;53.10;31.20;;;;;;;1.52;76.97;98617.02;227676;1193;142324;-68
2021/12/05 11:14:01;;;;;;;62.00;36.60;;;;;;;1.57;76.72;98610.77;229028;1193;140686;-67
2021/12/05 11:19:26;;;;;;;68.70;39.90;;;;;;;1.59;77.05;98607.69;227991;1193;139519;-68
2021/12/05 11:24:49;;;;;;;67.60;33.30;;;;;;;1.56;77.01;98610.60;227891;1193;233867;-68
2021/12/05 11:30:13;;;;;;;69.90;37.30;;;;;;;1.54;76.58;98608.15;228094;1193;150818;-68
2021/12/05 11:35:42;;;;;;;60.90;33.70;;;;;;;1.55;76.98;98621.52;229011;1193;139477;-68
2021/12/05 11:41:02;;;;;;;68.80;36.70;;;;;;;1.51;77.11;98626.46;228627;1193;138441;-69
2021/12/05 11:46:28;;;;;;;68.90;35.50;;;;;;;1.46;77.01;98632.73;228112;1186;139317;-69
2021/12/05 11:51:36;;;;;;;58.30;34.20;;;;;;;1.39;76.51;98632.73;229100;1193;139258;-68
2021/12/05 11:57:00;;;;;;;56.40;31.50;;;;;;;1.32;76.70;98633.29;228974;1193;140593;-66
2021/12/05 12:02:27;;;;;;;63.90;31.20;;;;;;;1.21;76.94;98638.11;228633;1193;139532;-68
2021/12/05 12:08:07;;;;;;;64.10;36.20;;;;;;;1.25;77.33;98649.80;229007;1194;140859;-69
2021/12/05 12:13:18;;;;;;;60.10;32.90;;;;;;;1.25;77.30;98657.48;229171;1193;141819;-69
2021/12/05 12:18:28;;;;;;;52.00;32.70;;;;;;;1.23;77.40;98665.40;228320;1193;139862;-68
2021/12/05 12:23:30;;;;;;;63.80;33.00;;;;;;;1.16;77.32;98676.19;230475;1193;139815;-70
2021/12/05 12:28:35;;;;;;;66.60;36.50;;;;;;;1.17;77.22;98686.64;230312;1193;141459;-69
2021/12/05 12:34:27;;;;;;;59.60;36.60;;;;;;;1.19;77.43;98688.09;230234;1193;141552;-69
2021/12/05 12:39:37;;;;;;;75.50;43.10;;;;;;;1.16;77.68;98687.65;230027;1193;139041;-69
2021/12/05 12:45:20;;;;;;;72.40;36.50;;;;;;;1.17;77.64;98691.61;230531;1193;140729;-70
2021/12/05 12:50:35;;;;;;;56.00;35.30;;;;;;;1.23;77.36;98693.02;229539;1195;140177;-69
2021/12/05 12:55:43;;;;;;;68.60;34.10;;;;;;;1.24;77.50;98688.46;229306;1193;139779;-69
2021/12/05 13:00:47;;;;;;;81.80;46.30;;;;;;;1.16;77.48;98689.67;227847;1193;140016;-69
2021/12/05 13:11:15;;;;;;;72.20;41.60;;;;;;;1.09;77.72;98687.30;228109;1193;139271;-69
2021/12/05 13:16:34;;;;;;;68.50;39.40;;;;;;;1.05;77.55;98697.36;228718;1193;140844;-69
2021/12/05 13:22:01;;;;;;;83.90;46.00;;;;;;;1.02;77.87;98702.71;229449;1193;141063;-69
2021/12/05 13:27:41;;;;;;;;;;;;;;;;;;;;;
2021/12/05 13:32:44;;;;;;;68.70;41.30;;;;;;;1.06;77.82;98709.35;228805;1193;141898;-68
2021/12/05 13:37:56;;;;;;;69.70;38.50;;;;;;;1.05;77.97;98708.70;227793;1193;139058;-69
2021/12/05 13:43:05;;;;;;;69.10;36.90;;;;;;;1.00;78.21;98712.88;228747;1193;139172;-68
2021/12/05 13:48:22;;;;;;;62.30;30.00;;;;;;;0.98;78.40;98709.96;229316;1193;139739;-68
2021/12/05 13:53:31;;;;;;;59.80;32.70;;;;;;;0.98;78.08;98709.29;228733;1193;140403;-68
2021/12/05 13:58:40;;;;;;;63.90;38.20;;;;;;;0.92;78.17;98715.20;227928;1193;140683;-67
2021/12/05 14:04:27;;;;;;;;;;;;;;;;;;;;;
2021/12/05 14:09:36;;;;;;;58.40;30.60;;;;;;;0.84;78.77;98709.98;228765;1193;140148;-68
2021/12/05 14:14:48;;;;;;;53.00;27.00;;;;;;;0.84;78.36;98712.33;228115;1193;139563;-69
2021/12/05 14:20:25;;;;;;;53.50;29.00;;;;;;;0.76;78.50;98724.96;229288;1187;139265;-68
2021/12/05 14:25:29;;;;;;;60.80;33.60;;;;;;;0.62;78.68;98730.20;229058;1193;161495;-69
2021/12/05 14:30:35;;;;;;;51.40;25.20;;;;;;;0.52;78.47;98730.45;229568;1193;140878;-68
2021/12/05 14:35:41;;;;;;;57.70;30.40;;;;;;;0.50;78.40;98732.89;228671;1195;141641;-67
2021/12/05 14:40:44;;;;;;;64.80;30.00;;;;;;;0.51;78.90;98738.46;230118;1193;140564;-68
2021/12/05 14:45:47;;;;;;;60.80;32.30;;;;;;;0.46;78.90;98747.14;230415;1193;139915;-69
2021/12/05 14:50:53;;;;;;;53.60;29.30;;;;;;;0.44;78.42;98752.53;229793;1193;139975;-68
2021/12/05 14:55:58;;;;;;;58.60;32.20;;;;;;;0.43;78.89;98760.68;228989;1194;140047;-68
2021/12/05 15:01:03;;;;;;;54.30;28.00;;;;;;;0.42;79.12;98765.55;228388;1193;139006;-67
2021/12/05 15:06:09;;;;;;;62.80;29.40;;;;;;;0.37;78.93;98770.35;230122;1193;139479;-67
2021/12/05 15:11:11;;;;;;;57.30;30.00;;;;;;;0.37;78.76;98771.28;229501;1193;140352;-67
2021/12/05 15:16:17;;;;;;;69.20;33.90;;;;;;;0.36;78.83;98774.10;228701;1193;140002;-66
2021/12/05 15:21:21;;;;;;;63.30;32.70;;;;;;;0.31;78.91;98771.52;228559;1193;139754;-67
2021/12/05 15:26:31;;;;;;;57.90;29.00;;;;;;;0.33;78.98;98776.19;228847;1193;140361;-67
2021/12/05 15:31:40;;;;;;;61.70;33.40;;;;;;;0.35;79.02;98783.13;227747;1193;139868;-67
2021/12/05 15:36:44;;;;;;;57.70;34.10;;;;;;;0.27;79.20;98788.91;227733;1193;139584;-66
2021/12/05 15:41:49;;;;;;;62.30;31.70;;;;;;;0.20;79.17;98789.45;228544;1193;141582;-67
2021/12/05 15:47:04;;;;;;;65.50;32.00;;;;;;;0.15;79.49;98794.05;228565;1194;141313;-66
2021/12/05 15:52:11;;;;;;;73.90;38.60;;;;;;;0.10;79.45;98791.52;227867;1193;139605;-66
2021/12/05 15:57:27;;;;;;;62.70;33.70;;;;;;;0.08;79.61;98795.45;229083;1193;139472;-66
2021/12/05 16:02:30;;;;;;;102.00;41.50;;;;;;;0.10;79.43;98802.96;228968;1193;139865;-68
2021/12/05 16:07:33;;;;;;;66.30;32.00;;;;;;;0.09;79.36;98800.38;229121;1193;139808;-67
2021/12/05 16:12:39;;;;;;;62.70;31.10;;;;;;;0.05;79.42;98807.04;228493;1193;139895;-67
2021/12/05 16:17:42;;;;;;;66.40;33.00;;;;;;;0.04;79.24;98807.31;228113;1193;140483;-67
2021/12/05 16:23:22;;;;;;;79.20;34.90;;;;;;;0.01;79.66;98812.40;229466;1193;161842;-67
2021/12/05 16:28:32;;;;;;;60.90;30.60;;;;;;;0.00;79.82;98820.55;230286;1194;139013;-68
2021/12/05 16:33:36;;;;;;;77.80;35.00;;;;;;;0.04;79.66;98820.64;230267;1193;140247;-68
2021/12/05 16:38:43;;;;;;;72.90;38.40;;;;;;;0.03;79.65;98825.40;230373;1193;139697;-67
2021/12/05 16:44:09;;;;;;;69.10;28.90;;;;;;;0.05;79.70;98825.56;230102;1193;140442;-69
2021/12/05 16:49:19;;;;;;;63.00;33.90;;;;;;;0.12;79.98;98826.12;229464;1193;141498;-67
2021/12/05 16:54:31;;;;;;;65.30;35.20;;;;;;;0.09;79.63;98838.96;230017;1193;139491;-67
2021/12/05 16:59:40;;;;;;;63.60;32.70;;;;;;;0.07;79.86;98841.04;229601;1193;139441;-67
2021/12/05 17:04:59;;;;;;;64.20;35.10;;;;;;;0.07;79.53;98840.84;229682;1193;163118;-69
2021/12/05 17:10:10;;;;;;;69.40;35.30;;;;;;;0.04;79.77;98848.54;228362;1193;140337;-68
2021/12/05 17:15:26;;;;;;;67.60;32.00;;;;;;;-0.01;79.78;98846.58;228585;1193;139334;-68
2021/12/05 17:20:43;;;;;;;67.90;34.80;;;;;;;-0.05;79.92;98844.61;229285;1193;140061;-68
2021/12/05 17:25:56;;;;;;;79.80;39.90;;;;;;;-0.11;80.02;98849.80;228422;1193;140350;-68
2021/12/05 17:31:12;;;;;;;74.90;35.30;;;;;;;-0.12;80.11;98853.34;229773;1193;140448;-68
2021/12/05 17:36:27;;;;;;;81.40;37.20;;;;;;;-0.12;80.01;98853.89;228291;1194;140321;-68
2021/12/05 17:41:31;;;;;;;91.50;43.90;;;;;;;-0.15;80.29;98867.29;228349;1193;141134;-68
2021/12/05 17:46:36;;;;;;;82.80;37.00;;;;;;;-0.14;80.30;98870.44;229349;1193;140200;-69
2021/12/05 17:51:48;;;;;;;59.10;29.20;;;;;;;-0.11;80.59;98872.02;228170;1193;140403;-67
2021/12/05 17:57:08;;;;;;;66.20;37.00;;;;;;;-0.14;80.43;98873.42;227922;1193;140419;-67
2021/12/05 18:07:35;;;;;;;76.30;33.30;;;;;;;-0.14;80.73;98877.77;229144;1193;141262;-68
2021/12/05 18:12:39;;;;;;;97.70;45.70;;;;;;;-0.13;80.30;98891.20;229011;1193;140119;-68
2021/12/05 18:17:42;;;;;;;89.80;43.00;;;;;;;-0.15;80.83;98905.89;229975;1193;138894;-69
2021/12/05 18:22:46;;;;;;;77.00;33.70;;;;;;;-0.15;80.45;98888.64;229854;1193;139679;-69
2021/12/05 18:27:52;;;;;;;80.70;37.10;;;;;;;-0.14;80.48;98882.89;230432;1193;140073;-70
2021/12/05 18:32:57;;;;;;;78.10;38.60;;;;;;;-0.12;80.50;98887.15;230267;1193;140038;-69
2021/12/05 18:38:07;;;;;;;80.60;34.90;;;;;;;-0.15;80.60;98897.59;230326;1193;139982;-70
2021/12/05 18:43:13;;;;;;;105.20;43.70;;;;;;;-0.16;80.57;98914.46;230168;1193;139602;-69
2021/12/05 18:48:17;;;;;;;81.10;38.10;;;;;;;-0.13;80.91;98908.29;230024;1193;140582;-66
2021/12/05 18:53:21;;;;;;;74.50;36.50;;;;;;;-0.09;80.57;98914.39;229107;1193;141258;-69
2021/12/05 18:58:26;;;;;;;87.70;35.50;;;;;;;-0.06;80.73;98914.90;227813;1193;140351;-68
2021/12/05 19:14:05;;;;;;;76.20;40.60;;;;;;;-0.03;80.78;98934.12;228570;1193;126645;-68
2021/12/05 19:19:09;;;;;;;77.40;36.80;;;;;;;-0.02;80.96;98932.20;228702;1193;140549;-69
2021/12/05 19:24:14;;;;;;;88.80;42.00;;;;;;;0.01;80.88;98940.23;228581;1193;142678;-69
2021/12/05 19:29:19;;;;;;;91.90;43.90;;;;;;;0.02;80.85;98946.16;228127;1193;140600;-68
2021/12/05 19:34:25;;;;;;;95.00;39.40;;;;;;;0.02;81.20;98949.02;228419;1193;140832;-67
2021/12/05 19:39:29;;;;;;;97.30;41.20;;;;;;;0.00;80.61;98951.55;228203;1193;140029;-67
2021/12/05 19:44:34;;;;;;;90.40;42.10;;;;;;;-0.04;80.74;98963.09;228845;1193;140269;-67
2021/12/05 19:49:36;;;;;;;104.30;46.50;;;;;;;-0.08;80.98;98964.08;227771;1193;140668;-66
2021/12/05 19:54:41;;;;;;;98.70;40.80;;;;;;;-0.13;80.97;98973.58;229283;1193;140683;-67
2021/12/05 19:59:45;;;;;;;109.00;50.80;;;;;;;-0.15;80.81;98968.11;229230;1193;142030;-68
2021/12/05 20:04:53;;;;;;;129.90;53.70;;;;;;;-0.22;80.89;98966.82;229267;1193;140653;-69
2021/12/05 20:09:56;;;;;;;;;;;;;;;-0.25;81.22;98966.65;229585;1193;139445;-69
2021/12/05 20:14:59;;;;;;;93.70;38.50;;;;;;;-0.33;81.02;98966.27;230914;1193;126278;-69
2021/12/05 20:20:04;;;;;;;89.90;42.90;;;;;;;-0.28;80.84;98967.55;229773;1193;141734;-68
2021/12/05 20:25:10;;;;;;;101.60;39.10;;;;;;;-0.26;81.30;98962.58;229515;1193;141417;-68
2021/12/05 20:30:16;;;;;;;113.00;41.00;;;;;;;-0.29;81.07;98970.64;230465;1193;142006;-69
2021/12/05 20:35:20;;;;;;;89.10;36.60;;;;;;;-0.29;80.80;98970.08;229520;1193;141775;-68
2021/12/05 20:40:36;;;;;;;108.70;42.80;;;;;;;-0.24;80.88;98969.40;230072;1193;140500;-69
2021/12/05 20:45:42;;;;;;;94.60;42.00;;;;;;;-0.22;81.40;98976.28;229455;1193;139363;-69
2021/12/05 20:50:45;;;;;;;82.60;32.80;;;;;;;-0.18;81.22;98973.19;228322;1193;140415;-68
2021/12/05 20:55:49;;;;;;;71.10;35.30;;;;;;;-0.12;81.18;98977.89;229066;1193;140502;-68
2021/12/05 21:00:57;;;;;;;78.70;38.80;;;;;;;-0.15;81.19;98977.34;228107;1193;140688;-68
2021/12/05 21:06:05;;;;;;;80.50;34.20;;;;;;;-0.26;81.05;98972.41;228668;1193;140086;-69
2021/12/05 21:11:15;;;;;;;88.50;38.80;;;;;;;-0.33;81.20;98977.79;229051;1193;140540;-69
2021/12/05 21:16:19;;;;;;;89.60;38.60;;;;;;;-0.36;81.24;98979.20;228374;1193;140150;-68
2021/12/05 21:21:23;;;;;;;64.80;28.80;;;;;;;-0.43;81.32;98976.81;228026;1193;141891;-75
2021/12/05 21:26:29;;;;;;;86.10;35.70;;;;;;;-0.48;81.73;98973.89;228885;1193;140065;-68
2021/12/05 21:31:34;;;;;;;87.20;39.90;;;;;;;-0.45;81.81;98978.44;227939;1193;161877;-66
2021/12/05 21:36:38;;;;;;;80.20;33.30;;;;;;;-0.51;81.42;98975.93;227973;1193;141727;-67
2021/12/05 21:41:42;;;;;;;88.60;33.80;;;;;;;-0.59;81.78;98982.83;228798;1193;141339;-68
2021/12/05 21:46:45;;;;;;;83.90;36.30;;;;;;;-0.56;81.63;98982.83;228187;1193;140840;-67
2021/12/05 21:51:49;;;;;;;90.40;40.40;;;;;;;-0.51;82.20;98977.02;227771;1193;140140;-71
2021/12/05 21:56:52;;;;;;;88.90;40.20;;;;;;;-0.50;82.07;98975.79;228157;1193;141775;-68
2021/12/05 22:01:54;;;;;;;86.20;33.70;;;;;;;-0.59;81.98;98979.78;228052;1193;142720;-67
2021/12/05 22:06:59;;;;;;;70.00;37.10;;;;;;;-0.60;82.21;98972.63;228730;1182;140906;-65
2021/12/05 22:12:04;;;;;;;86.30;41.20;;;;;;;-0.60;82.20;98974.69;228669;1194;140110;-67
2021/12/05 22:17:07;;;;;;;76.10;33.50;;;;;;;-0.59;82.29;98979.41;229931;1193;142426;-65
2021/12/05 22:22:10;;;;;;;71.10;30.90;;;;;;;-0.55;82.31;98984.02;229151;1193;140209;-66
2021/12/05 22:27:14;;;;;;;63.30;29.30;;;;;;;-0.50;82.09;98978.96;230235;1193;139676;-69
2021/12/05 22:32:16;;;;;;;70.00;29.00;;;;;;;-0.50;82.41;98984.85;230172;1193;140868;-72
2021/12/05 22:37:24;;;;;;;71.70;32.70;;;;;;;-0.50;82.34;98994.45;230432;1193;140003;-73
2021/12/05 22:42:30;;;;;;;76.20;32.60;;;;;;;-0.45;81.79;99001.13;230165;1193;140069;-72
2021/12/05 22:47:33;;;;;;;71.00;28.40;;;;;;;-0.39;82.10;99001.88;230066;1193;140681;-72
2021/12/05 22:52:37;;;;;;;65.10;27.50;;;;;;;-0.42;82.23;98997.48;229805;1193;142691;-69
2021/12/05 22:57:41;;;;;;;70.20;35.20;;;;;;;-0.35;82.38;98998.02;229185;1194;139553;-67
2021/12/05 23:02:44;;;;;;;73.70;33.20;;;;;;;-0.27;82.25;99005.11;228883;1194;139271;-68
2021/12/05 23:07:47;;;;;;;74.10;31.40;;;;;;;-0.28;82.17;99006.67;229112;1193;140697;-67
2021/12/05 23:12:50;;;;;;;69.10;30.10;;;;;;;-0.33;81.99;98999.58;229020;1193;140543;-66
2021/12/05 23:17:54;;;;;;;71.00;32.40;;;;;;;-0.35;81.95;98989.48;227750;1193;141177;-65
2021/12/05 23:22:58;;;;;;;67.90;32.00;;;;;;;-0.37;82.09;98996.02;228433;1193;141535;-69
2021/12/05 23:28:00;;;;;;;66.40;30.60;;;;;;;-0.41;82.26;99003.70;227995;1193;139643;-66
2021/12/05 23:33:11;;;;;;;72.00;32.70;;;;;;;-0.44;82.65;99017.08;228519;1195;138931;-65
2021/12/05 23:38:16;;;;;;;71.00;31.70;;;;;;;-0.45;82.41;99023.48;228050;1193;139482;-67
2021/12/05 23:43:20;;;;;;;68.00;29.30;;;;;;;-0.43;82.43;99015.20;228891;1193;141257;-72
2021/12/05 23:48:24;;;;;;;72.30;31.30;;;;;;;-0.42;82.63;99010.41;229113;1193;139964;-68
2021/12/05 23:53:27;;;;;;;63.80;28.50;;;;;;;-0.41;82.43;99018.17;229043;1193;139406;-67
2021/12/05 23:58:36;;;;;;;65.00;29.10;;;;;;;-0.45;82.37;99016.47;228445;1193;140943;-68
